Time;durP1;ratioP1;P1;durP2;ratioP2;P2;SDS_P1;SDS_P2;PMS_P1;PMS_P2;Temp;Humidity;BMP_temperature;BMP_pressure;BME280_temperature;BME280_humidity;BME280_pressure;Samples;Min_cycle;Max_cycle;Signal;HPM_P1;HPM_P2
2021/07/27 00:02:10;;;;;;;6.95;1.63;;;15.10;99.90;;;;;;5070930;28;20414;-82
2021/07/27 00:04:36;;;;;;;5.45;1.30;;;15.30;99.90;;;;;;5068571;28;20459;-82
2021/07/27 00:07:04;;;;;;;7.13;1.67;;;15.40;99.90;;;;;;5087590;28;20686;-83
2021/07/27 00:09:31;;;;;;;7.13;1.70;;;15.40;99.90;;;;;;5073237;28;20385;-83
2021/07/27 00:11:58;;;;;;;6.45;1.58;;;15.40;99.90;;;;;;5071126;28;20899;-83
2021/07/27 00:14:25;;;;;;;6.68;1.65;;;15.50;99.90;;;;;;5070777;28;20401;-83
2021/07/27 00:16:52;;;;;;;7.50;1.60;;;15.60;99.90;;;;;;5071773;28;20783;-83
2021/07/27 00:19:19;;;;;;;6.45;1.45;;;15.70;99.90;;;;;;5072963;28;20899;-83
2021/07/27 00:21:46;;;;;;;6.80;1.70;;;15.80;99.30;;;;;;5073361;28;20394;-84
2021/07/27 00:24:13;;;;;;;4.72;1.60;;;16.20;98.00;;;;;;5070863;28;20397;-84
2021/07/27 00:26:40;;;;;;;7.85;1.70;;;16.60;96.30;;;;;;5070795;28;20448;-84
2021/07/27 00:29:08;;;;;;;6.90;1.63;;;16.80;95.10;;;;;;5068369;28;20750;-84
2021/07/27 00:31:35;;;;;;;7.38;1.70;;;17.00;94.60;;;;;;5045650;28;20429;-83
2021/07/27 00:34:02;;;;;;;6.87;1.60;;;17.00;94.40;;;;;;5081075;28;20426;-83
2021/07/27 00:36:29;;;;;;;5.70;1.40;;;16.80;94.50;;;;;;5075328;28;20432;-84
2021/07/27 00:38:56;;;;;;;5.15;1.50;;;16.60;94.70;;;;;;5068826;28;20425;-82
2021/07/27 00:41:23;;;;;;;6.38;1.50;;;16.50;94.30;;;;;;5075861;28;20386;-82
2021/07/27 00:43:50;;;;;;;6.32;1.40;;;16.50;96.00;;;;;;5056207;28;20386;-83
2021/07/27 00:46:17;;;;;;;6.63;1.70;;;16.40;94.10;;;;;;5104680;28;20404;-85
2021/07/27 00:48:47;;;;;;;6.43;1.98;;;16.40;94.60;;;;;;5101619;28;20395;-84
2021/07/27 00:51:14;;;;;;;4.82;1.30;;;16.30;94.20;;;;;;5092821;28;20388;-85
2021/07/27 00:53:41;;;;;;;4.97;1.35;;;16.40;94.00;;;;;;5090705;28;21203;-82
2021/07/27 00:56:09;;;;;;;6.55;1.48;;;16.50;93.60;;;;;;5090708;28;20403;-83
2021/07/27 00:58:36;;;;;;;6.25;1.45;;;16.70;92.90;;;;;;5091200;28;20458;-84
2021/07/27 01:01:04;;;;;;;5.50;1.33;;;16.80;92.70;;;;;;5090382;28;20785;-84
2021/07/27 01:03:31;;;;;;;5.22;1.30;;;16.80;92.80;;;;;;5096180;28;20384;-83
2021/07/27 01:06:00;;;;;;;4.25;1.20;;;16.70;92.40;;;;;;5090992;28;20384;-83
2021/07/27 01:08:27;;;;;;;7.40;1.40;;;16.70;92.40;;;;;;5095033;28;20392;-84
2021/07/27 01:10:55;;;;;;;6.85;1.50;;;16.70;92.40;;;;;;5089480;28;20403;-82
2021/07/27 01:13:22;;;;;;;7.03;1.50;;;16.60;91.90;;;;;;5089462;28;20416;-82
2021/07/27 01:15:49;;;;;;;4.30;1.63;;;16.70;92.50;;;;;;5090258;28;20743;-85
2021/07/27 01:18:28;;;;;;;5.45;1.33;;;16.70;91.70;;;;;;5091202;28;20396;-84
2021/07/27 01:37:36;;;;;;;6.50;1.50;;;17.00;91.10;;;;;;5087197;28;20469;-83
2021/07/27 01:40:06;;;;;;;3.85;1.35;;;17.00;91.60;;;;;;5084760;28;20400;-83
2021/07/27 01:42:41;;;;;;;5.30;1.50;;;17.10;90.60;;;;;;5080538;28;20384;-83
2021/07/27 01:45:17;;;;;;;8.13;1.30;;;17.20;91.20;;;;;;5075903;28;20903;-84
2021/07/27 01:47:44;;;;;;;1109.07;851.35;;;17.20;90.80;;;;;;5069197;28;20481;-81
2021/07/27 01:50:13;;;;;;;16.58;7.18;;;17.20;91.30;;;;;;5069378;28;20390;-85
2021/07/27 01:52:46;;;;;;;5.53;1.80;;;17.20;90.80;;;;;;5069214;28;20428;-85
2021/07/27 01:55:13;;;;;;;6.57;1.90;;;17.20;90.30;;;;;;5067817;28;20757;-85
2021/07/27 01:57:40;;;;;;;7.32;1.60;;;17.20;90.70;;;;;;5068815;28;20461;-85
2021/07/27 02:00:09;;;;;;;6.88;1.40;;;17.20;90.80;;;;;;5067779;28;20386;-88
2021/07/27 02:02:36;;;;;;;7.85;1.80;;;17.20;91.40;;;;;;5063574;28;20770;-86
2021/07/27 02:05:03;;;;;;;7.03;2.20;;;17.30;90.80;;;;;;5067050;28;20404;-86
2021/07/27 02:07:30;;;;;;;6.43;1.95;;;17.40;90.60;;;;;;5067645;28;20757;-85
2021/07/27 02:10:03;;;;;;;6.50;1.58;;;17.40;90.30;;;;;;5065653;28;20433;-88
2021/07/27 02:12:48;;;;;;;5.25;1.50;;;17.50;90.50;;;;;;5067515;28;20397;-87
2021/07/27 02:15:17;;;;;;;6.53;1.77;;;17.50;90.70;;;;;;5070422;28;20401;-88
2021/07/27 02:17:45;;;;;;;6.15;1.40;;;17.40;91.30;;;;;;5070357;28;20402;-86
2021/07/27 02:20:13;;;;;;;4.20;1.38;;;17.40;90.80;;;;;;5070096;28;20390;-88
2021/07/27 02:22:40;;;;;;;8.13;1.95;;;17.40;91.30;;;;;;5068464;28;20390;-87
2021/07/27 02:25:09;;;;;;;7.57;1.60;;;17.40;91.50;;;;;;5053743;28;20428;-87
2021/07/27 02:27:36;;;;;;;5.35;1.55;;;17.40;91.00;;;;;;5071082;28;20520;-88
2021/07/27 02:30:06;;;;;;;6.47;1.55;;;17.30;91.10;;;;;;5072937;28;20429;-86
2021/07/27 02:32:54;;;;;;;6.93;1.55;;;17.40;91.20;;;;;;5057069;28;20408;-91
2021/07/27 02:35:23;;;;;;;4.25;1.42;;;17.40;91.00;;;;;;5064042;28;20908;-88
2021/07/27 02:37:50;;;;;;;7.72;2.03;;;17.30;91.30;;;;;;5070910;28;20440;-88
2021/07/27 02:40:37;;;;;;;7.03;1.85;;;17.30;92.30;;;;;;5074810;28;20481;-86
2021/07/27 02:43:05;;;;;;;6.07;1.50;;;17.30;92.10;;;;;;5056415;28;20473;-89
2021/07/27 02:45:32;;;;;;;7.35;1.50;;;17.30;91.90;;;;;;5070156;28;20413;-85
2021/07/27 02:48:00;;;;;;;6.70;1.67;;;17.30;91.20;;;;;;5033754;28;20403;-87
2021/07/27 02:50:50;;;;;;;5.45;1.58;;;17.20;91.50;;;;;;5069320;28;20396;-87
2021/07/27 02:53:17;;;;;;;6.68;1.60;;;17.30;90.70;;;;;;5066642;28;20405;-85
2021/07/27 02:55:44;;;;;;;4.60;1.50;;;17.30;90.70;;;;;;5069380;28;20405;-84
2021/07/27 02:58:11;;;;;;;5.88;1.45;;;17.40;91.10;;;;;;5067307;28;20488;-86
2021/07/27 03:00:38;;;;;;;5.93;1.70;;;17.50;91.00;;;;;;5050372;28;20497;-86
2021/07/27 03:03:04;;;;;;;5.85;1.60;;;17.50;90.60;;;;;;5067868;28;20394;-86
2021/07/27 03:05:31;;;;;;;7.13;1.77;;;17.60;90.90;;;;;;5067948;28;20457;-87
2021/07/27 03:07:59;;;;;;;10.10;1.80;;;17.70;90.60;;;;;;5068413;28;20401;-86
2021/07/27 03:10:26;;;;;;;6.22;1.65;;;17.60;90.00;;;;;;5073837;28;20423;-87
2021/07/27 03:12:58;;;;;;;6.45;1.63;;;17.60;90.80;;;;;;5076551;28;20416;-85
2021/07/27 03:15:26;;;;;;;5.47;1.27;;;17.60;91.70;;;;;;5072163;28;20396;-85
2021/07/27 03:17:54;;;;;;;6.97;1.70;;;17.60;91.20;;;;;;5071951;28;20927;-85
2021/07/27 03:20:22;;;;;;;7.28;1.70;;;17.70;90.80;;;;;;5089711;28;20380;-84
2021/07/27 03:22:51;;;;;;;6.05;1.73;;;17.70;91.60;;;;;;5076930;28;20459;-88
2021/07/27 03:25:19;;;;;;;4.93;1.25;;;17.70;91.50;;;;;;5073518;28;20873;-86
2021/07/27 03:27:48;;;;;;;6.03;1.50;;;17.80;91.20;;;;;;5071341;28;20872;-85
2021/07/27 03:30:16;;;;;;;6.05;1.50;;;17.80;91.80;;;;;;5071708;28;20414;-86
2021/07/27 03:32:45;;;;;;;6.20;1.55;;;17.90;91.70;;;;;;5075303;28;20508;-87
2021/07/27 03:35:16;;;;;;;6.37;1.57;;;18.00;91.10;;;;;;5057001;28;20786;-88
2021/07/27 03:37:43;;;;;;;5.10;1.60;;;18.00;90.80;;;;;;5052905;28;20433;-91
2021/07/27 03:40:11;;;;;;;7.35;1.80;;;18.10;90.20;;;;;;5069420;28;20402;-88
2021/07/27 03:42:38;;;;;;;7.43;1.75;;;18.00;90.20;;;;;;5054126;28;20409;-88
2021/07/27 03:45:06;;;;;;;4.38;1.20;;;18.00;89.80;;;;;;5070106;28;20390;-86
2021/07/27 03:47:33;;;;;;;5.18;1.70;;;18.00;91.50;;;;;;5075197;28;20390;-88
2021/07/27 03:50:00;;;;;;;6.55;1.40;;;18.00;90.10;;;;;;5077002;28;20382;-87
2021/07/27 03:52:27;;;;;;;6.95;1.50;;;18.00;88.50;;;;;;5090949;28;20403;-90
2021/07/27 03:54:54;;;;;;;5.45;1.50;;;18.00;88.60;;;;;;5096027;28;20388;-88
2021/07/27 03:57:21;;;;;;;4.07;1.45;;;18.10;88.80;;;;;;5077302;28;20474;-89
2021/07/27 03:59:48;;;;;;;9.05;1.55;;;18.10;88.30;;;;;;5076755;28;20416;-89
2021/07/27 04:02:15;;;;;;;5.75;1.40;;;18.00;89.00;;;;;;5082358;28;20378;-90
2021/07/27 04:04:43;;;;;;;5.07;1.50;;;17.90;87.20;;;;;;5080425;28;20373;-91
2021/07/27 04:07:10;;;;;;;8.73;1.35;;;17.70;89.70;;;;;;5077449;28;20382;-88
2021/07/27 04:09:38;;;;;;;5.55;1.48;;;17.70;89.50;;;;;;5080330;28;20438;-89
2021/07/27 04:12:05;;;;;;;7.72;1.70;;;17.70;87.90;;;;;;5064014;28;20873;-92
2021/07/27 04:14:35;;;;;;;7.95;1.48;;;17.70;88.30;;;;;;5070721;28;20441;-92
2021/07/27 04:17:03;;;;;;;3.72;1.63;;;17.80;88.50;;;;;;5069298;28;20410;-89
2021/07/27 04:19:30;;;;;;;3.20;1.30;;;17.90;88.30;;;;;;5070985;28;20394;-88
2021/07/27 04:21:57;;;;;;;4.75;1.50;;;17.90;89.10;;;;;;5074147;28;20806;-86
2021/07/27 04:24:24;;;;;;;4.15;1.10;;;17.90;86.60;;;;;;5064072;28;20390;-89
2021/07/27 04:26:52;;;;;;;7.38;1.48;;;17.90;87.30;;;;;;5081317;28;20413;-86
2021/07/27 04:29:19;;;;;;;6.50;1.75;;;17.90;89.50;;;;;;5070383;28;20528;-88
2021/07/27 04:31:50;;;;;;;4.15;1.20;;;17.80;90.10;;;;;;5054893;28;20400;-88
2021/07/27 04:34:18;;;;;;;9.15;1.52;;;17.80;89.40;;;;;;5056453;28;20382;-88
2021/07/27 04:36:45;;;;;;;5.72;1.50;;;17.70;90.30;;;;;;5073316;28;20467;-87
2021/07/27 04:39:12;;;;;;;5.97;1.50;;;17.70;89.50;;;;;;5071654;28;20422;-86
2021/07/27 04:41:39;;;;;;;5.43;1.42;;;17.80;88.30;;;;;;5073043;28;20628;-87
2021/07/27 04:44:06;;;;;;;5.10;1.10;;;17.70;88.70;;;;;;5074663;28;21093;-86
2021/07/27 04:46:38;;;;;;;10.57;1.80;;;17.80;87.10;;;;;;5088053;28;20426;-86
2021/07/27 04:49:05;;;;;;;5.72;1.33;;;17.70;88.10;;;;;;5075928;28;20396;-87
2021/07/27 04:51:34;;;;;;;5.30;1.67;;;17.70;88.70;;;;;;5105867;28;20389;-85
2021/07/27 04:54:05;;;;;;;4.15;1.20;;;17.80;89.00;;;;;;5072157;28;20396;-86
2021/07/27 04:56:44;;;;;;;4.90;1.40;;;17.80;88.50;;;;;;5077837;28;20455;-86
2021/07/27 04:59:11;;;;;;;4.10;1.10;;;17.90;87.80;;;;;;5090911;28;20380;-87
2021/07/27 05:01:41;;;;;;;4.18;1.25;;;17.90;88.40;;;;;;5092332;28;20386;-87
2021/07/27 05:04:08;;;;;;;6.22;1.50;;;18.00;86.30;;;;;;5091915;28;20487;-90
2021/07/27 05:06:35;;;;;;;4.25;1.13;;;18.00;87.20;;;;;;5088891;28;20687;-85
2021/07/27 05:09:02;;;;;;;6.43;1.50;;;18.10;86.90;;;;;;5086721;28;20392;-87
2021/07/27 05:11:29;;;;;;;5.50;1.20;;;18.00;84.70;;;;;;5072236;28;20392;-87
2021/07/27 05:13:56;;;;;;;4.70;1.20;;;17.90;85.30;;;;;;5088928;28;20437;-87
2021/07/27 05:16:23;;;;;;;2.67;1.00;;;17.90;86.20;;;;;;5073720;28;20504;-87
2021/07/27 05:19:04;;;;;;;5.45;1.40;;;17.80;86.90;;;;;;5073040;28;20910;-89
2021/07/27 05:21:34;;;;;;;5.45;1.23;;;17.80;88.50;;;;;;5075463;28;20528;-91
2021/07/27 05:24:02;;;;;;;3.25;1.35;;;17.70;88.00;;;;;;5094157;28;20430;-85
2021/07/27 05:26:29;;;;;;;7.25;1.52;;;17.70;87.00;;;;;;5072780;28;20396;-87
2021/07/27 05:28:56;;;;;;;5.85;1.20;;;17.70;87.30;;;;;;5090242;28;20415;-88
2021/07/27 05:31:25;;;;;;;3.78;1.25;;;17.70;87.90;;;;;;5071280;28;20397;-88
2021/07/27 05:33:52;;;;;;;4.90;1.23;;;17.70;89.00;;;;;;5090841;28;20388;-87
2021/07/27 05:36:19;;;;;;;4.97;1.23;;;17.60;86.80;;;;;;5085969;28;20406;-88
2021/07/27 05:38:46;;;;;;;5.47;1.13;;;17.60;86.90;;;;;;5088210;28;20878;-89
2021/07/27 05:41:13;;;;;;;4.82;1.20;;;17.60;88.00;;;;;;5094100;28;20396;-88
2021/07/27 05:43:40;;;;;;;5.57;1.02;;;17.60;88.00;;;;;;5088008;28;20392;-87
2021/07/27 05:46:07;;;;;;;4.00;1.05;;;17.60;86.30;;;;;;5070556;28;20409;-88
2021/07/27 05:48:34;;;;;;;5.03;1.33;;;17.60;86.30;;;;;;5075445;28;20884;-88
2021/07/27 05:51:03;;;;;;;4.50;1.20;;;17.60;87.60;;;;;;5053493;28;20899;-87
2021/07/27 05:53:30;;;;;;;4.75;1.23;;;17.60;87.90;;;;;;5069205;28;20394;-88
2021/07/27 05:55:59;;;;;;;4.55;1.30;;;17.60;86.80;;;;;;5069731;28;20903;-90
2021/07/27 05:58:26;;;;;;;5.37;1.30;;;17.60;88.10;;;;;;5052999;28;20425;-87
2021/07/27 06:00:53;;;;;;;5.27;1.23;;;17.50;86.50;;;;;;5070847;28;20396;-91
2021/07/27 06:03:20;;;;;;;5.18;1.38;;;17.50;86.80;;;;;;5037005;28;20406;-88
2021/07/27 06:05:51;;;;;;;4.28;1.27;;;17.50;87.50;;;;;;5072353;28;20440;-90
2021/07/27 06:08:18;;;;;;;4.33;1.40;;;17.30;88.90;;;;;;5071377;28;20395;-88
2021/07/27 06:10:45;;;;;;;4.83;1.37;;;17.30;89.20;;;;;;5068280;28;21000;-87
2021/07/27 06:13:12;;;;;;;5.83;1.30;;;17.20;90.20;;;;;;5069210;28;20424;-85
2021/07/27 06:15:39;;;;;;;7.63;1.60;;;17.20;89.80;;;;;;5068063;28;20385;-87
2021/07/27 06:18:06;;;;;;;5.32;1.35;;;17.10;90.30;;;;;;5070422;28;20476;-85
2021/07/27 06:20:33;;;;;;;4.50;1.38;;;17.00;89.30;;;;;;5067764;28;20477;-86
2021/07/27 06:23:00;;;;;;;4.03;1.35;;;17.00;88.70;;;;;;5064378;28;20376;-87
2021/07/27 06:25:27;;;;;;;3.97;1.20;;;17.00;90.00;;;;;;5059059;28;20390;-85
2021/07/27 06:27:54;;;;;;;6.75;1.38;;;17.00;90.40;;;;;;5065981;28;20500;-85
2021/07/27 06:30:21;;;;;;;3.63;1.20;;;17.00;90.50;;;;;;5071641;28;20922;-87
2021/07/27 06:32:48;;;;;;;5.90;1.43;;;16.90;91.20;;;;;;5069590;28;20440;-87
2021/07/27 06:35:16;;;;;;;7.00;1.42;;;16.80;91.50;;;;;;5073926;28;20382;-87
2021/07/27 06:37:43;;;;;;;7.15;1.30;;;16.70;91.60;;;;;;5074240;28;20409;-87
2021/07/27 06:40:10;;;;;;;7.03;1.40;;;16.60;92.40;;;;;;5068640;28;20422;-87
2021/07/27 06:42:37;;;;;;;5.68;1.27;;;16.50;92.80;;;;;;5067013;28;20394;-88
2021/07/27 06:45:05;;;;;;;4.75;1.02;;;16.50;92.80;;;;;;5080959;28;20437;-87
2021/07/27 06:47:32;;;;;;;5.77;1.33;;;16.40;93.40;;;;;;5090652;28;20384;-86
2021/07/27 06:49:59;;;;;;;7.53;1.47;;;16.30;93.60;;;;;;5090943;28;20435;-85
2021/07/27 06:52:26;;;;;;;5.90;1.47;;;16.20;94.00;;;;;;5091952;28;20445;-86
2021/07/27 06:54:53;;;;;;;6.22;1.50;;;16.10;94.40;;;;;;5090623;28;20400;-85
2021/07/27 06:57:20;;;;;;;4.93;1.38;;;16.10;94.70;;;;;;5090507;28;20408;-86
2021/07/27 06:59:47;;;;;;;4.80;1.52;;;16.00;94.80;;;;;;5087294;28;20916;-88
2021/07/27 07:02:14;;;;;;;3.78;1.30;;;16.00;95.50;;;;;;5075668;28;20534;-92
2021/07/27 07:04:41;;;;;;;5.03;2.08;;;15.80;95.90;;;;;;5087863;28;20392;-90
2021/07/27 07:07:08;;;;;;;6.72;1.60;;;15.80;96.10;;;;;;5081006;28;20461;-93
2021/07/27 07:09:36;;;;;;;6.60;1.55;;;15.80;96.00;;;;;;5096397;28;20368;-94
2021/07/27 07:12:08;;;;;;;4.80;1.40;;;15.70;96.00;;;;;;5077561;28;20613;-87
2021/07/27 07:14:35;;;;;;;7.35;1.27;;;15.70;96.30;;;;;;5090575;28;20416;-91
2021/07/27 07:17:02;;;;;;;5.40;1.50;;;15.60;96.60;;;;;;5066816;28;20400;-90
2021/07/27 07:19:29;;;;;;;6.32;1.58;;;15.50;96.90;;;;;;5062465;28;20894;-88
2021/07/27 07:21:56;;;;;;;6.93;1.73;;;15.40;97.00;;;;;;5094514;28;20375;-88
2021/07/27 07:24:23;;;;;;;5.65;1.73;;;15.40;97.50;;;;;;5082962;28;20381;-90
2021/07/27 07:26:50;;;;;;;6.30;1.50;;;15.40;97.30;;;;;;5093757;28;20390;-88
2021/07/27 07:29:17;;;;;;;6.93;1.55;;;15.30;97.70;;;;;;5096930;28;20400;-88
2021/07/27 07:31:44;;;;;;;3.63;1.40;;;15.20;97.90;;;;;;5095621;28;20487;-88
2021/07/27 07:34:13;;;;;;;4.57;1.58;;;15.10;98.30;;;;;;5099666;28;20392;-90
2021/07/27 07:36:40;;;;;;;5.38;1.70;;;15.10;98.40;;;;;;5108239;28;20408;-89
2021/07/27 07:39:06;;;;;;;4.25;2.00;;;15.10;98.50;;;;;;5091574;28;20750;-86
2021/07/27 07:41:33;;;;;;;5.25;1.77;;;15.00;98.40;;;;;;5093475;28;20426;-89
2021/07/27 07:44:00;;;;;;;5.28;1.77;;;15.00;98.80;;;;;;5073368;28;20414;-90
2021/07/27 07:46:27;;;;;;;6.93;1.63;;;15.00;98.60;;;;;;5071137;28;20880;-91
2021/07/27 07:48:54;;;;;;;8.13;1.90;;;14.90;98.90;;;;;;5073416;28;20724;-90
2021/07/27 07:51:22;;;;;;;4.30;1.80;;;14.90;98.80;;;;;;5063886;28;20411;-90
2021/07/27 07:53:49;;;;;;;6.53;1.80;;;14.80;99.20;;;;;;5069497;28;20374;-91
2021/07/27 07:56:16;;;;;;;7.88;2.55;;;14.70;99.20;;;;;;5073572;28;20426;-90
2021/07/27 07:58:44;;;;;;;5.22;2.35;;;14.80;99.40;;;;;;5073130;28;20394;-89
2021/07/27 08:01:11;;;;;;;7.88;2.50;;;14.60;99.70;;;;;;5073482;28;20457;-88
2021/07/27 08:03:38;;;;;;;6.82;2.65;;;14.60;99.80;;;;;;5072861;28;20877;-88
2021/07/27 08:06:07;;;;;;;7.00;2.13;;;14.50;99.90;;;;;;5077745;28;20783;-91
2021/07/27 08:08:38;;;;;;;5.60;2.03;;;14.50;99.90;;;;;;5061651;28;20402;-89
2021/07/27 08:11:10;;;;;;;7.50;2.00;;;14.50;99.90;;;;;;5053227;28;20394;-88
2021/07/27 08:13:37;;;;;;;5.47;2.30;;;14.50;99.90;;;;;;5076628;28;20416;-88
2021/07/27 08:16:10;;;;;;;6.72;2.15;;;14.40;99.90;;;;;;5077902;28;20463;-90
2021/07/27 08:18:38;;;;;;;6.15;2.00;;;14.40;99.90;;;;;;5078745;28;20473;-91
2021/07/27 08:21:06;;;;;;;4.30;1.70;;;14.40;99.90;;;;;;5076906;28;20390;-91
2021/07/27 08:23:33;;;;;;;6.82;2.08;;;14.40;99.90;;;;;;5082213;28;20476;-92
2021/07/27 08:26:00;;;;;;;5.78;2.03;;;14.40;99.90;;;;;;5074285;28;20374;-89
2021/07/27 08:28:27;;;;;;;7.70;2.30;;;14.30;99.90;;;;;;5082072;28;20412;-92
2021/07/27 08:30:54;;;;;;;6.10;2.30;;;14.30;99.90;;;;;;5057410;28;20385;-91
2021/07/27 08:33:24;;;;;;;5.28;2.20;;;14.30;99.90;;;;;;5077144;28;20378;-90
2021/07/27 08:35:52;;;;;;;9.40;2.72;;;14.30;99.90;;;;;;5074242;28;20394;-89
2021/07/27 08:38:19;;;;;;;6.35;2.55;;;14.20;99.90;;;;;;5072756;28;20405;-90
2021/07/27 08:40:50;;;;;;;7.82;1.98;;;14.20;99.90;;;;;;5054389;28;20386;-88
2021/07/27 08:43:17;;;;;;;4.60;1.88;;;14.20;99.90;;;;;;5072914;28;20473;-93
2021/07/27 08:45:48;;;;;;;5.47;1.60;;;14.10;99.90;;;;;;5054314;28;20400;-89
2021/07/27 08:48:18;;;;;;;5.70;2.05;;;14.10;99.90;;;;;;5076821;28;20390;-90
2021/07/27 08:50:46;;;;;;;5.38;1.80;;;14.10;99.90;;;;;;5072666;28;20394;-91
2021/07/27 08:53:13;;;;;;;4.35;2.00;;;14.00;99.90;;;;;;5071791;28;20397;-91
2021/07/27 08:55:40;;;;;;;5.38;2.05;;;14.00;99.90;;;;;;5074356;28;20390;-89
2021/07/27 08:58:07;;;;;;;4.80;1.95;;;13.90;99.90;;;;;;5072154;28;20397;-90
2021/07/27 09:00:34;;;;;;;7.75;2.22;;;13.90;99.90;;;;;;5057495;28;20461;-91
2021/07/27 09:03:17;;;;;;;5.90;2.10;;;13.90;99.90;;;;;;5077413;28;20389;-90
2021/07/27 09:05:44;;;;;;;6.72;2.00;;;13.80;99.90;;;;;;5093894;28;20382;-92
2021/07/27 09:08:13;;;;;;;4.15;1.70;;;13.80;99.90;;;;;;5055402;28;20388;-92
2021/07/27 09:10:42;;;;;;;5.90;1.85;;;13.80;99.90;;;;;;5055544;28;20406;-92
2021/07/27 09:13:11;;;;;;;5.95;2.30;;;13.80;99.90;;;;;;5053106;28;20394;-93
2021/07/27 09:15:41;;;;;;;4.20;2.15;;;13.80;99.90;;;;;;5075365;28;20405;-92
2021/07/27 09:18:30;;;;;;;7.65;2.17;;;13.80;99.90;;;;;;5054774;28;20402;-91
2021/07/27 09:20:58;;;;;;;5.47;1.85;;;13.80;99.90;;;;;;5053925;28;20406;-92
2021/07/27 09:23:27;;;;;;;6.43;2.33;;;13.80;99.90;;;;;;5071240;28;20458;-90
2021/07/27 09:25:57;;;;;;;7.40;2.35;;;13.80;99.90;;;;;;5071678;28;20417;-93
2021/07/27 09:28:26;;;;;;;4.07;2.00;;;13.70;99.90;;;;;;5071603;28;20483;-91
2021/07/27 09:31:01;;;;;;;5.75;2.13;;;13.70;99.90;;;;;;5054820;28;20813;-92
2021/07/27 09:33:30;;;;;;;5.95;2.08;;;13.60;99.90;;;;;;5054265;28;20405;-91
2021/07/27 09:35:57;;;;;;;6.20;2.10;;;13.60;99.90;;;;;;5072069;28;20970;-90
2021/07/27 09:38:26;;;;;;;5.75;2.40;;;13.50;99.90;;;;;;5067677;28;20518;-91
2021/07/27 09:40:56;;;;;;;4.88;1.90;;;13.50;99.90;;;;;;5070000;28;20884;-92
2021/07/27 09:43:25;;;;;;;5.13;1.90;;;13.40;99.90;;;;;;5065538;28;20419;-91
2021/07/27 09:46:03;;;;;;;7.07;2.30;;;13.40;99.90;;;;;;5068560;28;20392;-92
2021/07/27 09:48:30;;;;;;;5.32;1.80;;;13.40;99.90;;;;;;5068910;28;20439;-91
2021/07/27 09:51:01;;;;;;;3.53;1.73;;;13.40;99.90;;;;;;5074640;28;20720;-92
2021/07/27 09:53:28;;;;;;;5.35;1.80;;;13.30;99.90;;;;;;5089796;28;20747;-91
2021/07/27 09:55:57;;;;;;;4.78;1.77;;;13.40;99.90;;;;;;5073170;28;20868;-90
2021/07/27 09:58:27;;;;;;;4.38;1.60;;;13.40;99.90;;;;;;5076926;28;20408;-90
2021/07/27 10:01:21;;;;;;;6.47;2.30;;;13.40;99.90;;;;;;5099357;28;20385;-91
2021/07/27 10:04:00;;;;;;;5.05;1.83;;;13.40;99.90;;;;;;5088244;28;20528;-91
2021/07/27 10:06:34;;;;;;;5.72;1.88;;;13.30;99.90;;;;;;5070297;28;20392;-92
2021/07/27 10:09:02;;;;;;;3.42;1.40;;;13.30;99.90;;;;;;5072491;28;20391;-89
2021/07/27 10:11:41;;;;;;;5.03;1.70;;;13.30;99.90;;;;;;5088545;28;20390;-90
2021/07/27 10:14:17;;;;;;;5.07;2.03;;;13.30;99.90;;;;;;5090749;28;20384;-92
2021/07/27 10:16:45;;;;;;;6.85;1.80;;;13.40;99.90;;;;;;5087952;28;20887;-91
2021/07/27 10:19:15;;;;;;;4.40;1.65;;;13.30;99.90;;;;;;5094791;28;20400;-91
2021/07/27 10:21:43;;;;;;;5.97;1.65;;;13.30;99.90;;;;;;5073282;28;20368;-92
2021/07/27 10:24:15;;;;;;;4.13;1.60;;;13.30;99.90;;;;;;5059514;28;20407;-90
2021/07/27 10:26:43;;;;;;;4.90;1.40;;;13.20;99.90;;;;;;5100462;28;20371;-91
2021/07/27 10:29:11;;;;;;;4.78;1.90;;;13.20;99.90;;;;;;5099221;28;20454;-90
2021/07/27 10:31:44;;;;;;;4.15;1.45;;;13.10;99.90;;;;;;5077373;28;20399;-91
2021/07/27 10:34:13;;;;;;;5.70;1.45;;;13.00;99.90;;;;;;5073552;28;20381;-90
2021/07/27 10:36:42;;;;;;;3.97;1.55;;;13.00;99.90;;;;;;5069663;28;20402;-89
2021/07/27 10:39:12;;;;;;;5.25;1.70;;;12.90;99.90;;;;;;5087515;28;20407;-88
2021/07/27 10:41:44;;;;;;;6.68;2.03;;;12.80;99.90;;;;;;5069937;28;20399;-89
2021/07/27 10:44:14;;;;;;;6.63;1.95;;;12.80;99.90;;;;;;5070502;28;20408;-89
2021/07/27 10:46:44;;;;;;;4.73;1.73;;;12.80;99.90;;;;;;5087296;28;20882;-89
2021/07/27 10:49:25;;;;;;;6.75;2.08;;;12.80;99.90;;;;;;5068418;28;20379;-89
2021/07/27 10:51:54;;;;;;;6.85;1.83;;;12.70;99.90;;;;;;5056818;28;20420;-88
2021/07/27 10:54:29;;;;;;;6.22;1.60;;;12.80;99.90;;;;;;5067710;28;20404;-90
2021/07/27 10:56:59;;;;;;;5.38;1.75;;;12.70;99.90;;;;;;5071873;28;20851;-90
2021/07/27 10:59:31;;;;;;;5.70;2.00;;;12.70;99.90;;;;;;5072326;28;20514;-89
2021/07/27 11:01:59;;;;;;;4.80;1.88;;;12.70;99.90;;;;;;5069770;28;20403;-89
2021/07/27 11:04:30;;;;;;;5.68;2.03;;;12.60;99.90;;;;;;5071138;28;20902;-89
2021/07/27 11:07:15;;;;;;;5.32;1.50;;;12.50;99.90;;;;;;5071985;28;20483;-88
2021/07/27 11:09:52;;;;;;;4.57;1.80;;;12.50;99.90;;;;;;5071785;28;20377;-89
2021/07/27 11:12:40;;;;;;;4.72;1.63;;;12.50;99.90;;;;;;5082233;28;20397;-89
2021/07/27 11:15:14;;;;;;;7.20;2.07;;;12.40;99.90;;;;;;5071113;28;20517;-90
2021/07/27 11:18:01;;;;;;;5.15;1.63;;;12.30;99.90;;;;;;5060699;28;20930;-89
2021/07/27 11:20:32;;;;;;;4.82;1.85;;;12.30;99.90;;;;;;5087845;28;20427;-90
2021/07/27 11:23:08;;;;;;;4.77;1.67;;;12.30;99.90;;;;;;5087155;28;20871;-88
2021/07/27 11:25:36;;;;;;;4.32;1.75;;;12.30;99.90;;;;;;5085307;28;20420;-89
2021/07/27 11:28:16;;;;;;;7.63;1.60;;;12.40;99.90;;;;;;5088184;28;20413;-90
2021/07/27 11:30:44;;;;;;;5.82;1.48;;;12.40;99.90;;;;;;5102142;28;20386;-89
2021/07/27 11:33:17;;;;;;;4.40;1.40;;;12.40;99.90;;;;;;5074061;28;20399;-89
2021/07/27 11:35:48;;;;;;;4.80;1.40;;;12.50;99.90;;;;;;5091505;28;20388;-88
2021/07/27 11:38:29;;;;;;;4.20;1.30;;;12.60;99.90;;;;;;5087542;28;20408;-88
2021/07/27 11:41:10;;;;;;;5.45;1.27;;;12.50;99.90;;;;;;5107616;28;20392;-90
2021/07/27 11:43:39;;;;;;;5.63;1.60;;;12.60;99.90;;;;;;5075034;28;20403;-90
2021/07/27 11:46:16;;;;;;;5.80;1.50;;;12.70;99.90;;;;;;5074494;28;20393;-90
2021/07/27 11:48:53;;;;;;;8.07;1.43;;;12.60;99.90;;;;;;5083254;28;20513;-90
2021/07/27 11:51:30;;;;;;;4.88;1.20;;;12.60;99.90;;;;;;5092853;28;20405;-91
2021/07/27 11:53:58;;;;;;;3.47;1.48;;;12.70;99.90;;;;;;5099284;28;20406;-90
2021/07/27 11:56:25;;;;;;;5.47;1.70;;;12.70;99.90;;;;;;5092770;28;20421;-91
2021/07/27 11:59:06;;;;;;;4.67;1.40;;;12.60;99.90;;;;;;5096804;28;21538;-90
2021/07/27 12:01:44;;;;;;;5.53;1.52;;;12.60;99.90;;;;;;5094308;28;20392;-90
2021/07/27 12:04:11;;;;;;;3.47;1.30;;;12.60;99.90;;;;;;5094795;28;20390;-89
2021/07/27 12:06:48;;;;;;;4.23;1.30;;;12.70;99.90;;;;;;5076771;28;20405;-90
2021/07/27 12:09:15;;;;;;;3.00;1.20;;;12.70;99.90;;;;;;5077260;28;20410;-90
2021/07/27 12:11:43;;;;;;;4.20;0.98;;;12.70;99.90;;;;;;5078926;28;20403;-91
2021/07/27 12:14:10;;;;;;;3.80;1.10;;;12.80;99.90;;;;;;5099217;28;20720;-91
2021/07/27 12:16:38;;;;;;;4.22;1.38;;;12.80;99.90;;;;;;5101113;28;20419;-88
2021/07/27 12:19:05;;;;;;;3.25;1.00;;;12.80;99.90;;;;;;5097439;28;20424;-90
2021/07/27 12:21:32;;;;;;;3.92;0.98;;;12.90;99.90;;;;;;5072749;28;20406;-90
2021/07/27 12:24:01;;;;;;;2.95;1.00;;;12.80;99.90;;;;;;5099805;28;20506;-90
2021/07/27 12:26:28;;;;;;;3.45;1.20;;;12.80;99.90;;;;;;5098589;28;21025;-89
2021/07/27 12:28:55;;;;;;;4.82;1.50;;;12.80;99.90;;;;;;5079999;28;20384;-92
2021/07/27 12:31:22;;;;;;;3.30;1.15;;;12.80;99.90;;;;;;5086131;28;20404;-91
2021/07/27 12:33:50;;;;;;;2.63;1.10;;;12.80;99.90;;;;;;5084095;28;20925;-90
2021/07/27 12:36:17;;;;;;;2.78;1.30;;;12.70;99.90;;;;;;5118820;28;20380;-90
2021/07/27 12:38:46;;;;;;;3.90;1.33;;;12.60;99.90;;;;;;5096650;28;20403;-90
2021/07/27 12:41:14;;;;;;;3.05;1.05;;;12.60;99.90;;;;;;5085685;28;20402;-89
2021/07/27 12:43:41;;;;;;;4.40;1.67;;;12.50;99.90;;;;;;5099307;28;20993;-90
2021/07/27 12:46:09;;;;;;;3.72;1.30;;;12.60;99.90;;;;;;5058256;28;22280;-91
2021/07/27 12:48:37;;;;;;;3.10;1.30;;;12.70;99.90;;;;;;5086966;28;20397;-89
2021/07/27 12:51:04;;;;;;;3.40;1.23;;;12.70;99.90;;;;;;5063081;28;20422;-89
2021/07/27 12:53:32;;;;;;;3.60;1.17;;;12.70;99.90;;;;;;5088624;28;20481;-89
2021/07/27 12:55:59;;;;;;;3.55;1.30;;;12.80;99.90;;;;;;5072473;28;20386;-91
2021/07/27 12:58:27;;;;;;;3.67;1.38;;;12.70;99.90;;;;;;5053588;28;20991;-88
2021/07/27 13:00:54;;;;;;;3.80;1.20;;;12.70;99.90;;;;;;5070870;28;20422;-90
2021/07/27 13:03:21;;;;;;;5.40;1.20;;;12.60;99.90;;;;;;5063366;28;20744;-91
2021/07/27 13:05:49;;;;;;;4.32;1.25;;;12.60;99.90;;;;;;5071854;28;20447;-90
2021/07/27 13:08:17;;;;;;;4.28;1.05;;;12.50;99.90;;;;;;5053195;28;20787;-88
2021/07/27 13:10:44;;;;;;;4.63;1.38;;;12.60;99.90;;;;;;5053816;28;20485;-89
2021/07/27 13:13:11;;;;;;;4.00;1.20;;;12.50;99.90;;;;;;5066517;28;20395;-89